Time;durP1;ratioP1;P1;durP2;ratioP2;P2;SDS_P1;SDS_P2;PMS_P1;PMS_P2;Temp;Humidity;BMP_temperature;BMP_pressure;BME280_temperature;BME280_humidity;BME280_pressure;Samples;Min_cycle;Max_cycle;Signal;HPM_P1;HPM_P2
2023/08/21 00:01:53;;;;;;;10.43;7.38;;;;;;;22.91;63.11;101749.44;15622991;28;20706;-51
2023/08/21 00:09:26;;;;;;;10.30;8.05;;;;;;;22.78;64.13;101750.72;15622606;28;20076;-49
2023/08/21 00:17:02;;;;;;;14.02;9.20;;;;;;;22.73;65.03;101753.44;15672776;28;20037;-51
2023/08/21 00:24:35;;;;;;;15.18;9.68;;;;;;;22.59;65.52;101746.78;15665659;28;20037;-48
2023/08/21 00:32:11;;;;;;;12.85;9.43;;;;;;;22.59;66.04;101752.25;15683283;28;20049;-50
2023/08/21 00:39:47;;;;;;;16.52;10.50;;;;;;;22.47;67.08;101740.69;15666427;28;20095;-48
2023/08/21 00:47:21;;;;;;;16.63;11.65;;;;;;;22.60;66.95;101749.25;15664556;28;20048;-50
2023/08/21 00:54:56;;;;;;;17.20;11.52;;;;;;;22.60;66.62;101737.47;15664183;28;20118;-49
2023/08/21 01:02:31;;;;;;;16.45;11.57;;;;;;;22.44;67.61;101743.97;15663238;28;20060;-51
2023/08/21 01:10:11;;;;;;;15.05;11.45;;;;;;;22.46;67.43;101742.63;15646690;28;20052;-48
2023/08/21 01:17:48;;;;;;;16.02;12.95;;;;;;;22.29;68.53;101741.97;15605540;28;20061;-49
2023/08/21 01:25:23;;;;;;;21.17;13.88;;;;;;;22.09;69.57;101737.16;15600753;28;20068;-48
2023/08/21 01:33:01;;;;;;;18.08;13.63;;;;;;;21.71;71.35;101728.13;15583603;28;20045;-49
2023/08/21 01:40:36;;;;;;;18.88;12.98;;;;;;;22.25;69.27;101735.41;15583344;28;20048;-48
2023/08/21 01:48:09;;;;;;;16.65;12.77;;;;;;;22.36;69.40;101731.63;15600195;28;20034;-48
2023/08/21 01:55:44;;;;;;;17.42;12.88;;;;;;;22.62;68.50;101730.66;15582668;28;20069;-49
2023/08/21 02:03:16;;;;;;;16.60;13.07;;;;;;;22.64;67.75;101730.41;15598593;28;20045;-50
2023/08/21 02:10:52;;;;;;;19.67;12.82;;;;;;;22.63;67.51;101720.53;15598028;28;20045;-48
2023/08/21 02:18:25;;;;;;;16.67;12.95;;;;;;;22.59;68.65;101725.72;15659485;28;20064;-48
2023/08/21 02:25:59;;;;;;;13.73;11.98;;;;;;;22.67;67.63;101721.66;15659302;28;20045;-51
2023/08/21 02:33:32;;;;;;;16.85;12.57;;;;;;;22.59;68.37;101727.63;15676873;28;20049;-50
2023/08/21 02:41:06;;;;;;;15.10;12.10;;;;;;;22.58;68.18;101720.53;15659086;28;20052;-48
2023/08/21 02:48:40;;;;;;;17.45;12.45;;;;;;;22.52;68.72;101716.09;15680904;28;20543;-50
2023/08/21 02:56:17;;;;;;;16.35;13.50;;;;;;;22.66;67.95;101723.56;15689671;28;20041;-50
2023/08/21 03:03:50;;;;;;;17.67;12.32;;;;;;;22.64;68.37;101719.44;15654103;28;20619;-46
2023/08/21 03:11:25;;;;;;;15.75;12.70;;;;;;;22.58;68.92;101724.09;15665945;28;20132;-47
2023/08/21 03:19:02;;;;;;;17.23;12.73;;;;;;;22.56;69.12;101719.94;15591901;28;20128;-47
2023/08/21 03:26:39;;;;;;;16.65;12.40;;;;;;;22.58;68.81;101715.88;15607530;28;20045;-48
2023/08/21 03:34:12;;;;;;;15.15;12.23;;;;;;;22.57;69.25;101718.84;15606944;28;20422;-49
2023/08/21 03:41:46;;;;;;;15.75;12.20;;;;;;;22.36;69.97;101715.22;15606859;28;20413;-50
2023/08/21 03:49:20;;;;;;;17.13;12.35;;;;;;;22.25;69.81;101717.06;15623873;28;20046;-49
2023/08/21 03:56:54;;;;;;;16.15;11.98;;;;;;;21.84;71.58;101732.34;15606506;28;20056;-47
2023/08/21 04:04:28;;;;;;;14.90;11.75;;;;;;;22.14;70.42;101739.97;15605323;28;20080;-49
2023/08/21 04:12:03;;;;;;;15.10;11.60;;;;;;;21.97;71.07;101737.38;15614860;28;20182;-51
2023/08/21 04:19:37;;;;;;;15.73;12.27;;;;;;;21.09;74.32;101756.72;15666054;28;20185;-47
2023/08/21 04:27:14;;;;;;;18.42;12.95;;;;;;;20.76;74.91;101754.97;15666309;28;20094;-48
2023/08/21 04:34:47;;;;;;;19.25;12.85;;;;;;;20.68;76.02;101760.03;15682839;28;20053;-48
2023/08/21 04:42:22;;;;;;;16.17;12.43;;;;;;;20.97;74.47;101758.75;15665082;28;20095;-47
2023/08/21 04:49:56;;;;;;;18.00;12.40;;;;;;;21.40;73.61;101765.25;15664725;28;20119;-49
2023/08/21 04:57:31;;;;;;;18.30;12.40;;;;;;;21.84;71.61;101776.91;15647832;28;20518;-49
2023/08/21 05:05:09;;;;;;;14.50;11.52;;;;;;;21.94;71.46;101765.22;15664267;28;20063;-51
2023/08/21 05:12:46;;;;;;;17.45;11.90;;;;;;;22.18;71.01;101760.22;15679803;28;20079;-49
2023/08/21 05:20:21;;;;;;;15.75;11.35;;;;;;;22.29;70.81;101756.50;15647024;28;20068;-49
2023/08/21 05:27:57;;;;;;;16.48;11.43;;;;;;;22.82;68.17;101765.50;15662893;28;20065;-50
2023/08/21 05:35:33;;;;;;;14.60;11.30;;;;;;;22.84;67.39;101766.06;15661565;28;20441;-50
2023/08/21 05:43:09;;;;;;;14.23;11.65;;;;;;;22.92;67.61;101760.09;15662015;28;20045;-53
2023/08/21 05:50:45;;;;;;;16.45;11.63;;;;;;;22.71;67.65;101761.09;15645235;28;20053;-49
2023/08/21 05:58:20;;;;;;;13.15;11.10;;;;;;;22.62;68.56;101768.16;15644407;28;20114;-49
2023/08/21 06:05:54;;;;;;;15.98;11.77;;;;;;;22.76;68.60;101766.59;15660253;28;20693;-49
2023/08/21 06:13:29;;;;;;;18.38;11.85;;;;;;;23.43;67.67;101775.88;15660268;28;20498;-49
2023/08/21 06:21:08;;;;;;;17.08;11.13;;;;;;;22.86;69.28;101795.91;15661188;28;20474;-49
2023/08/21 06:28:42;;;;;;;14.82;11.02;;;;;;;23.10;68.98;101799.88;15659630;28;20037;-50
2023/08/21 06:36:15;;;;;;;13.88;11.52;;;;;;;22.85;70.33;101806.06;15659328;28;20490;-52
2023/08/21 06:43:50;;;;;;;12.60;9.98;;;;;;;23.52;68.43;101809.03;15659290;28;20043;-49
2023/08/21 06:51:25;;;;;;;12.75;8.98;;;;;;;23.89;66.19;101811.59;15659197;28;20076;-52
2023/08/21 06:59:01;;;;;;;13.15;8.90;;;;;;;24.29;64.95;101804.41;15658430;28;20045;-52
2023/08/21 07:06:35;;;;;;;15.20;7.93;;;;;;;24.09;64.85;101805.28;15678153;28;20049;-52
2023/08/21 07:14:13;;;;;;;11.30;6.50;;;;;;;24.13;62.22;101807.19;15632267;28;20053;-49
2023/08/21 07:21:46;;;;;;;8.98;5.88;;;;;;;24.63;60.28;101815.66;15616471;28;20137;-51
2023/08/21 07:29:21;;;;;;;9.90;6.20;;;;;;;25.18;60.23;101814.66;15596398;28;20133;-49
2023/08/21 07:36:55;;;;;;;9.52;5.25;;;;;;;25.20;59.79;101814.38;15601407;28;20044;-51
2023/08/21 07:44:31;;;;;;;7.95;4.63;;;;;;;24.99;60.34;101827.31;15606972;28;20507;-49
2023/08/21 07:52:06;;;;;;;9.45;4.57;;;;;;;25.29;57.72;101825.59;15606614;28;20132;-51
2023/08/21 07:59:40;;;;;;;7.40;4.03;;;;;;;25.35;57.48;101832.69;15623566;28;20490;-54
2023/08/21 08:07:14;;;;;;;9.73;3.38;;;;;;;25.12;56.60;101834.19;15622839;28;20518;-54
2023/08/21 08:14:49;;;;;;;7.45;3.35;;;;;;;25.54;55.52;101824.63;15654813;28;20247;-51
2023/08/21 08:22:22;;;;;;;5.30;2.20;;;;;;;25.21;51.30;101829.75;15666482;28;20552;-54
2023/08/21 08:29:56;;;;;;;5.82;1.75;;;;;;;25.04;48.79;101832.84;15666743;28;20570;-51
2023/08/21 08:37:33;;;;;;;6.35;1.90;;;;;;;25.02;48.74;101834.19;15683399;28;20464;-53
2023/08/21 08:45:08;;;;;;;4.47;1.85;;;;;;;26.40;48.89;101837.72;15682519;28;20078;-52
2023/08/21 08:52:44;;;;;;;7.20;2.22;;;;;;;27.33;46.03;101829.28;15681995;28;20067;-55
2023/08/21 09:00:19;;;;;;;5.38;1.98;;;;;;;27.21;45.89;101832.44;15666943;28;20522;-53
2023/08/21 09:08:04;;;;;;;4.50;1.70;;;;;;;27.59;42.90;101825.00;15663574;28;20048;-49
2023/08/21 09:15:39;;;;;;;4.53;1.35;;;;;;;27.58;39.92;101825.31;15623019;28;20045;-47
2023/08/21 09:23:16;;;;;;;3.15;1.10;;;;;;;27.48;39.48;101815.25;15618506;28;20100;-51
2023/08/21 09:30:51;;;;;;;4.68;1.10;;;;;;;27.96;39.35;101817.84;15618560;28;20076;-52
2023/08/21 09:38:28;;;;;;;2.95;1.00;;;;;;;28.75;38.96;101817.81;15600682;28;20197;-50
2023/08/21 09:46:04;;;;;;;2.67;0.80;;;;;;;29.00;38.55;101823.94;15599763;28;20465;-50
2023/08/21 09:53:42;;;;;;;3.80;0.80;;;;;;;29.26;35.58;101815.94;15616982;28;20049;-50
2023/08/21 10:01:21;;;;;;;4.07;0.80;;;;;;;29.11;38.31;101809.63;15598422;28;20047;-48
2023/08/21 10:08:57;;;;;;;3.55;0.77;;;;;;;28.83;36.30;101811.56;15616200;28;20148;-48
2023/08/21 10:16:31;;;;;;;3.83;0.77;;;;;;;29.45;38.65;101811.88;15662153;28;20763;-49
2023/08/21 10:24:05;;;;;;;2.05;0.98;;;;;;;28.67;38.05;101799.97;15677350;28;20544;-51
2023/08/21 10:31:43;;;;;;;2.35;0.68;;;;;;;29.32;37.24;101809.97;15643457;28;20517;-47
2023/08/21 10:39:17;;;;;;;2.22;0.80;;;;;;;29.25;38.27;101811.53;15677981;28;20136;-48
2023/08/21 10:46:54;;;;;;;2.60;0.85;;;;;;;30.05;37.06;101804.38;15660808;28;20040;-49
2023/08/21 10:54:27;;;;;;;3.45;0.80;;;;;;;29.82;33.60;101798.88;15676930;28;20061;-47
2023/08/21 11:02:01;;;;;;;1.38;0.85;;;;;;;29.89;34.78;101802.03;15658458;28;20362;-49
2023/08/21 11:09:36;;;;;;;2.83;0.85;;;;;;;29.46;37.12;101819.03;15662271;28;20148;-48
2023/08/21 11:17:11;;;;;;;3.75;0.90;;;;;;;29.16;38.41;101806.75;15644708;28;20041;-51
2023/08/21 11:24:47;;;;;;;5.30;1.00;;;;;;;29.41;36.08;101805.34;15687725;28;20111;-50
2023/08/21 11:32:24;;;;;;;2.67;1.10;;;;;;;31.22;36.79;101801.13;15669143;28;20093;-51
2023/08/21 11:39:59;;;;;;;4.47;0.90;;;;;;;31.25;33.85;101794.94;15669458;28;20406;-50
2023/08/21 11:47:36;;;;;;;3.78;0.82;;;;;;;29.76;37.70;101802.09;15677588;28;20049;-50
2023/08/21 11:55:10;;;;;;;2.45;0.70;;;;;;;29.34;34.44;101796.66;15668757;28;20048;-50
2023/08/21 12:02:54;;;;;;;4.00;1.80;;;;;;;29.22;35.25;101804.69;15667341;28;20422;-51
2023/08/21 12:10:28;;;;;;;2.60;0.82;;;;;;;29.41;35.52;101802.56;15667245;28;20095;-50
2023/08/21 12:18:03;;;;;;;4.25;0.80;;;;;;;29.82;37.55;101804.41;15684285;28;20075;-50
2023/08/21 12:25:38;;;;;;;2.33;0.95;;;;;;;29.48;36.62;101813.22;15665658;28;20049;-49
2023/08/21 12:33:15;;;;;;;2.10;0.90;;;;;;;29.40;37.50;101802.91;15665734;28;20049;-52
2023/08/21 12:40:48;;;;;;;8.25;0.90;;;;;;;29.73;36.26;101796.03;15665600;28;20041;-48
2023/08/21 12:48:23;;;;;;;2.90;1.08;;;;;;;29.77;35.91;101796.22;15664805;28;20593;-48
2023/08/21 12:55:56;;;;;;;4.47;0.90;;;;;;;29.24;37.18;101802.44;15665248;28;20041;-52
2023/08/21 13:03:39;;;;;;;4.30;0.85;;;;;;;29.66;38.54;101800.38;15682062;28;20102;-48
2023/08/21 13:11:12;;;;;;;3.88;0.93;;;;;;;31.43;36.03;101799.38;15663322;28;20041;-50
2023/08/21 13:18:48;;;;;;;4.25;0.80;;;;;;;31.80;33.14;101805.38;15680384;28;20044;-50
2023/08/21 13:26:21;;;;;;;2.50;0.80;;;;;;;31.36;31.71;101806.56;15680234;28;20394;-51
2023/08/21 13:33:58;;;;;;;2.95;0.80;;;;;;;31.26;30.91;101779.91;15678722;28;20045;-51
2023/08/21 13:41:31;;;;;;;4.93;0.88;;;;;;;32.29;29.47;101782.94;15661926;28;20056;-51
2023/08/21 13:49:06;;;;;;;2.20;0.70;;;;;;;30.18;32.03;101784.16;15661237;28;20064;-52
2023/08/21 13:56:40;;;;;;;2.53;0.60;;;;;;;30.33;33.67;101769.88;15679139;28;20208;-48
2023/08/21 14:04:15;;;;;;;4.90;0.70;;;;;;;29.35;34.90;101764.28;15679298;28;20045;-51
2023/08/21 14:11:49;;;;;;;5.60;1.15;;;;;;;29.40;34.57;101764.97;15651953;28;20090;-51
2023/08/21 14:19:23;;;;;;;3.60;0.80;;;;;;;28.86;37.25;101775.00;15615983;28;20459;-53
2023/08/21 14:26:56;;;;;;;6.78;0.95;;;;;;;28.47;36.13;101770.81;15598155;28;20103;-52
2023/08/21 14:34:31;;;;;;;6.38;1.05;;;;;;;28.20;39.08;101779.84;15615399;28;20096;-53
2023/08/21 14:42:05;;;;;;;5.43;1.17;;;;;;;27.61;39.27;101775.06;15616022;28;20057;-48
2023/08/21 14:49:41;;;;;;;6.30;1.42;;;;;;;27.94;39.62;101774.00;15609817;28;20037;-50
2023/08/21 14:57:14;;;;;;;4.90;1.10;;;;;;;28.05;39.80;101735.97;15626814;28;20054;-50
2023/08/21 15:04:49;;;;;;;3.78;0.90;;;;;;;28.35;39.03;101751.19;15609693;28;20084;-50
2023/08/21 15:12:22;;;;;;;16.13;2.50;;;;;;;28.55;38.40;101754.69;15664300;23;20056;-59
2023/08/21 15:19:56;;;;;;;5.03;1.27;;;;;;;28.35;39.86;101745.69;15647131;28;20103;-57
2023/08/21 15:27:31;;;;;;;5.80;1.63;;;;;;;28.36;39.27;101735.44;15602534;28;20152;-58
2023/08/21 15:35:08;;;;;;;12.00;1.98;;;;;;;28.12;39.97;101741.09;15619524;28;20095;-59
2023/08/21 15:42:42;;;;;;;4.07;0.90;;;;;;;28.06;39.00;101743.13;15601911;28;20404;-57
2023/08/21 15:50:19;;;;;;;4.13;0.80;;;;;;;27.43;40.48;101736.19;15601354;28;20051;-58
2023/08/21 15:57:53;;;;;;;3.13;1.00;;;;;;;27.27;39.97;101722.91;15617797;28;20049;-59
2023/08/21 16:05:29;;;;;;;4.90;1.25;;;;;;;27.13;40.39;101722.84;15618059;28;20045;-58
2023/08/21 16:13:03;;;;;;;5.85;1.02;;;;;;;26.99;40.05;101710.91;15583458;28;20041;-58
2023/08/21 16:20:39;;;;;;;3.47;1.42;;;;;;;27.30;40.57;101714.06;15599438;28;20121;-60
2023/08/21 16:28:12;;;;;;;4.22;1.10;;;;;;;27.31;41.72;101716.50;15599451;28;20423;-57
2023/08/21 16:35:46;;;;;;;4.18;0.98;;;;;;;27.26;41.02;101716.59;15616602;28;20443;-59
2023/08/21 16:43:19;;;;;;;6.38;1.10;;;;;;;27.13;42.32;101714.56;15615857;28;20124;-60
2023/08/21 16:50:55;;;;;;;7.38;5.05;;;;;;;26.92;43.15;101708.53;15615335;28;20038;-60
2023/08/21 16:58:28;;;;;;;4.10;1.40;;;;;;;27.12;43.99;101715.69;15615282;28;20042;-58
2023/08/21 17:06:02;;;;;;;3.78;1.02;;;;;;;27.13;41.55;101703.56;15614559;28;20045;-58
2023/08/21 17:13:35;;;;;;;5.75;1.52;;;;;;;27.09;43.45;101705.25;15614171;28;20041;-60
2023/08/21 17:21:12;;;;;;;4.00;1.40;;;;;;;26.87;44.44;101692.88;15614870;28;20099;-55
2023/08/21 17:28:47;;;;;;;5.50;1.30;;;;;;;26.68;45.92;101689.28;15595443;28;20474;-58
2023/08/21 17:36:22;;;;;;;3.60;1.20;;;;;;;26.53;44.52;101683.97;15611949;28;20144;-60
2023/08/21 17:43:55;;;;;;;3.08;1.13;;;;;;;26.38;45.70;101691.28;15595182;28;20466;-60
2023/08/21 17:51:31;;;;;;;6.20;2.30;;;;;;;26.05;46.52;101704.03;15611853;28;20114;-59
2023/08/21 17:59:05;;;;;;;3.45;1.75;;;;;;;25.83;46.75;101698.19;15594099;28;20045;-60
2023/08/21 18:06:40;;;;;;;7.95;1.67;;;;;;;25.67;47.03;101694.75;15611457;28;20049;-59
2023/08/21 18:14:14;;;;;;;5.60;2.00;;;;;;;25.47;48.53;101694.94;15610427;28;20042;-60
2023/08/21 18:21:48;;;;;;;6.88;1.40;;;;;;;25.30;48.93;101709.06;15610817;28;20041;-59
2023/08/21 18:29:21;;;;;;;6.38;1.65;;;;;;;25.12;48.95;101707.78;15611010;28;20053;-59
2023/08/21 18:37:01;;;;;;;4.05;1.40;;;;;;;24.92;49.55;101716.97;15610510;28;20049;-57
2023/08/21 18:44:34;;;;;;;5.32;2.38;;;;;;;24.60;50.25;101720.13;15592876;28;20042;-60
2023/08/21 18:52:09;;;;;;;4.05;1.60;;;;;;;24.59;50.49;101726.72;15592785;28;20053;-59
2023/08/21 18:59:42;;;;;;;3.83;1.75;;;;;;;24.42;50.22;101730.59;15576229;28;20037;-60
2023/08/21 19:07:16;;;;;;;3.85;1.80;;;;;;;24.27;50.25;101738.03;15592261;28;20460;-59
2023/08/21 19:14:50;;;;;;;5.22;1.70;;;;;;;24.05;50.17;101725.44;15608761;28;20498;-60
2023/08/21 19:22:24;;;;;;;5.57;1.60;;;;;;;23.86;50.61;101727.13;15608900;28;20506;-59
2023/08/21 19:29:57;;;;;;;7.93;2.28;;;;;;;23.63;51.55;101729.28;15592202;28;20052;-60
2023/08/21 19:37:32;;;;;;;4.55;1.73;;;;;;;23.41;52.23;101736.97;15602810;28;20049;-60
2023/08/21 19:45:06;;;;;;;7.82;1.90;;;;;;;23.39;52.27;101730.91;15601842;28;20037;-59
2023/08/21 19:52:40;;;;;;;6.80;2.17;;;;;;;23.50;50.73;101732.59;15619132;28;20080;-60
2023/08/21 20:00:13;;;;;;;4.07;1.52;;;;;;;23.56;50.12;101742.44;15600516;28;20101;-56
2023/08/21 20:07:50;;;;;;;6.40;1.42;;;;;;;23.50;49.24;101739.97;15600122;28;20049;-61
2023/08/21 20:15:24;;;;;;;4.82;1.88;;;;;;;23.71;49.70;101746.31;15582446;28;20088;-60
2023/08/21 20:22:58;;;;;;;5.28;1.60;;;;;;;23.31;51.57;101747.88;15617192;28;20042;-60
2023/08/21 20:30:33;;;;;;;5.45;1.70;;;;;;;23.48;51.89;101732.03;15599447;28;20064;-61
2023/08/21 20:38:07;;;;;;;6.32;1.60;;;;;;;23.56;50.76;101736.97;15582341;28;20073;-60
2023/08/21 20:45:41;;;;;;;5.22;1.63;;;;;;;23.27;52.45;101727.59;15616372;28;20144;-60
2023/08/21 20:53:17;;;;;;;6.80;1.85;;;;;;;23.24;51.13;101717.19;15615500;28;20128;-57
2023/08/21 21:00:51;;;;;;;5.60;1.90;;;;;;;23.05;51.33;101717.72;15597559;28;20481;-59
2023/08/21 21:08:25;;;;;;;5.88;2.22;;;;;;;22.64;52.84;101731.22;15580514;28;20072;-60
2023/08/21 21:15:58;;;;;;;5.30;1.90;;;;;;;22.62;53.01;101724.38;15613910;28;20060;-52
2023/08/21 21:23:33;;;;;;;5.13;1.90;;;;;;;22.46;54.62;101739.06;15595919;28;20064;-53
2023/08/21 21:31:08;;;;;;;6.45;1.85;;;;;;;22.46;52.53;101739.06;15613215;28;20053;-53
2023/08/21 21:38:43;;;;;;;4.32;1.90;;;;;;;22.53;52.93;101729.53;15578748;28;20064;-56
2023/08/21 21:46:25;;;;;;;5.88;1.73;;;;;;;22.36;53.47;101724.22;15579027;28;20045;-51
2023/08/21 21:54:00;;;;;;;6.35;1.73;;;;;;;22.13;52.21;101725.47;15612163;28;20075;-50
2023/08/21 22:01:33;;;;;;;3.45;1.75;;;;;;;21.91;54.75;101722.00;15611451;28;20088;-49
2023/08/21 22:09:09;;;;;;;4.18;1.77;;;;;;;21.94;54.67;101728.84;15593824;28;20182;-50
2023/08/21 22:16:42;;;;;;;4.82;1.58;;;;;;;21.77;54.59;101732.53;15610371;28;20115;-51
2023/08/21 22:24:16;;;;;;;4.00;1.77;;;;;;;21.74;54.38;101719.41;15592370;28;20073;-53
2023/08/21 22:31:49;;;;;;;8.05;3.40;;;;;;;21.57;55.91;101729.66;15610227;28;20049;-50
2023/08/21 22:39:23;;;;;;;5.97;2.30;;;;;;;21.27;56.97;101741.09;15610103;28;20405;-53
2023/08/21 22:47:03;;;;;;;5.72;2.15;;;;;;;21.24;56.79;101734.22;15576949;28;20042;-53
2023/08/21 22:54:37;;;;;;;6.75;2.10;;;;;;;20.96;58.43;101731.72;15610821;28;20064;-51
2023/08/21 23:02:10;;;;;;;3.97;1.80;;;;;;;21.02;58.11;101722.50;15592548;28;20159;-53
2023/08/21 23:09:49;;;;;;;7.22;2.40;;;;;;;21.08;56.65;101719.59;15620397;28;20048;-55
2023/08/21 23:17:22;;;;;;;5.07;2.28;;;;;;;21.29;57.19;101708.88;15620915;28;20414;-51
2023/08/21 23:24:56;;;;;;;5.05;2.10;;;;;;;21.28;57.81;101718.16;15603481;28;20045;-49
2023/08/21 23:32:29;;;;;;;6.43;2.30;;;;;;;21.48;57.23;101712.06;15619897;28;20497;-50
2023/08/21 23:40:06;;;;;;;4.45;1.95;;;;;;;21.45;55.65;101702.50;15619250;28;20057;-51
2023/08/21 23:47:39;;;;;;;7.63;2.25;;;;;;;21.34;56.73;101698.84;15585077;28;20061;-56
2023/08/21 23:55:13;;;;;;;10.10;2.40;;;;;;;21.65;56.78;101701.84;15618961;28;20042;-52
